sensor_id;sensor_type;location;lat;lon;timestamp;P1;durP1;ratioP1;P2;durP2;ratioP2
51122;SDS011;37162;41.724;13.346;2023-12-04T00:00:17;7.85;;;4.45;;
51122;SDS011;37162;41.724;13.346;2023-12-04T00:02:43;8.15;;;5.10;;
51122;SDS011;37162;41.724;13.346;2023-12-04T00:05:08;9.95;;;4.72;;
51122;SDS011;37162;41.724;13.346;2023-12-04T00:07:34;8.20;;;4.13;;
51122;SDS011;37162;41.724;13.346;2023-12-04T00:09:59;7.38;;;4.05;;
51122;SDS011;37162;41.724;13.346;2023-12-04T00:12:25;6.90;;;4.00;;
51122;SDS011;37162;41.724;13.346;2023-12-04T00:14:50;9.93;;;4.50;;
51122;SDS011;37162;41.724;13.346;2023-12-04T00:17:16;9.82;;;4.25;;
51122;SDS011;37162;41.724;13.346;2023-12-04T00:19:42;9.00;;;4.35;;
51122;SDS011;37162;41.724;13.346;2023-12-04T00:22:07;6.85;;;3.85;;
51122;SDS011;37162;41.724;13.346;2023-12-04T00:24:33;9.30;;;4.60;;
51122;SDS011;37162;41.724;13.346;2023-12-04T00:26:58;9.90;;;4.72;;
51122;SDS011;37162;41.724;13.346;2023-12-04T00:29:23;7.38;;;3.72;;
51122;SDS011;37162;41.724;13.346;2023-12-04T00:31:49;6.57;;;3.72;;
51122;SDS011;37162;41.724;13.346;2023-12-04T00:34:14;7.43;;;3.90;;
51122;SDS011;37162;41.724;13.346;2023-12-04T00:36:40;7.05;;;3.65;;
51122;SDS011;37162;41.724;13.346;2023-12-04T00:39:05;7.10;;;4.10;;
51122;SDS011;37162;41.724;13.346;2023-12-04T00:41:31;8.35;;;4.03;;
51122;SDS011;37162;41.724;13.346;2023-12-04T00:43:56;6.13;;;3.63;;
51122;SDS011;37162;41.724;13.346;2023-12-04T00:46:22;5.97;;;3.65;;
51122;SDS011;37162;41.724;13.346;2023-12-04T00:48:47;5.32;;;3.50;;
51122;SDS011;37162;41.724;13.346;2023-12-04T00:51:13;5.90;;;3.78;;
51122;SDS011;37162;41.724;13.346;2023-12-04T00:53:38;6.47;;;4.05;;
51122;SDS011;37162;41.724;13.346;2023-12-04T00:56:04;4.78;;;3.20;;
51122;SDS011;37162;41.724;13.346;2023-12-04T00:58:31;6.47;;;3.38;;
51122;SDS011;37162;41.724;13.346;2023-12-04T01:00:56;5.03;;;3.35;;
51122;SDS011;37162;41.724;13.346;2023-12-04T01:03:22;5.05;;;3.17;;
51122;SDS011;37162;41.724;13.346;2023-12-04T01:05:48;6.43;;;3.30;;
51122;SDS011;37162;41.724;13.346;2023-12-04T01:08:13;4.63;;;3.22;;
51122;SDS011;37162;41.724;13.346;2023-12-04T01:10:39;6.35;;;3.50;;
51122;SDS011;37162;41.724;13.346;2023-12-04T01:13:05;4.72;;;2.65;;
51122;SDS011;37162;41.724;13.346;2023-12-04T01:15:30;5.10;;;3.00;;
51122;SDS011;37162;41.724;13.346;2023-12-04T01:17:56;6.38;;;3.15;;
51122;SDS011;37162;41.724;13.346;2023-12-04T01:20:21;6.93;;;3.30;;
51122;SDS011;37162;41.724;13.346;2023-12-04T01:22:47;4.60;;;2.53;;
51122;SDS011;37162;41.724;13.346;2023-12-04T01:25:13;5.70;;;2.78;;
51122;SDS011;37162;41.724;13.346;2023-12-04T01:27:38;6.22;;;3.00;;
51122;SDS011;37162;41.724;13.346;2023-12-04T01:30:05;5.35;;;2.78;;
51122;SDS011;37162;41.724;13.346;2023-12-04T01:32:33;5.35;;;2.45;;
51122;SDS011;37162;41.724;13.346;2023-12-04T01:34:59;3.55;;;2.60;;
51122;SDS011;37162;41.724;13.346;2023-12-04T01:37:25;6.05;;;3.22;;
51122;SDS011;37162;41.724;13.346;2023-12-04T01:39:50;6.30;;;3.33;;
51122;SDS011;37162;41.724;13.346;2023-12-04T01:42:16;6.90;;;3.08;;
51122;SDS011;37162;41.724;13.346;2023-12-04T01:44:41;4.95;;;2.65;;
51122;SDS011;37162;41.724;13.346;2023-12-04T01:47:06;6.40;;;3.30;;
51122;SDS011;37162;41.724;13.346;2023-12-04T01:49:32;6.88;;;2.70;;
51122;SDS011;37162;41.724;13.346;2023-12-04T01:51:58;7.32;;;3.20;;
51122;SDS011;37162;41.724;13.346;2023-12-04T01:54:23;3.55;;;2.20;;
51122;SDS011;37162;41.724;13.346;2023-12-04T01:56:49;5.43;;;2.70;;
51122;SDS011;37162;41.724;13.346;2023-12-04T01:59:15;5.72;;;2.47;;
51122;SDS011;37162;41.724;13.346;2023-12-04T02:01:41;5.80;;;2.65;;
51122;SDS011;37162;41.724;13.346;2023-12-04T02:04:07;3.22;;;2.35;;
51122;SDS011;37162;41.724;13.346;2023-12-04T02:06:33;5.32;;;2.65;;
51122;SDS011;37162;41.724;13.346;2023-12-04T02:08:59;3.83;;;2.30;;
51122;SDS011;37162;41.724;13.346;2023-12-04T02:11:25;4.85;;;2.25;;
51122;SDS011;37162;41.724;13.346;2023-12-04T02:13:50;4.50;;;2.30;;
51122;SDS011;37162;41.724;13.346;2023-12-04T02:16:16;5.15;;;2.42;;
51122;SDS011;37162;41.724;13.346;2023-12-04T02:18:44;3.63;;;2.30;;
51122;SDS011;37162;41.724;13.346;2023-12-04T02:21:10;3.58;;;2.70;;
51122;SDS011;37162;41.724;13.346;2023-12-04T02:23:36;2.92;;;2.10;;
51122;SDS011;37162;41.724;13.346;2023-12-04T02:26:12;2.88;;;2.10;;
51122;SDS011;37162;41.724;13.346;2023-12-04T02:28:42;3.40;;;2.00;;
51122;SDS011;37162;41.724;13.346;2023-12-04T02:31:11;6.68;;;2.42;;
51122;SDS011;37162;41.724;13.346;2023-12-04T02:33:37;4.82;;;2.95;;
51122;SDS011;37162;41.724;13.346;2023-12-04T02:36:05;4.05;;;1.92;;
51122;SDS011;37162;41.724;13.346;2023-12-04T02:38:32;3.53;;;2.38;;
51122;SDS011;37162;41.724;13.346;2023-12-04T02:40:57;4.05;;;2.17;;
51122;SDS011;37162;41.724;13.346;2023-12-04T02:43:23;3.55;;;2.08;;
51122;SDS011;37162;41.724;13.346;2023-12-04T02:45:48;4.20;;;2.55;;
51122;SDS011;37162;41.724;13.346;2023-12-04T02:48:14;2.30;;;2.00;;
51122;SDS011;37162;41.724;13.346;2023-12-04T02:50:39;3.72;;;2.03;;
51122;SDS011;37162;41.724;13.346;2023-12-04T02:53:05;2.67;;;2.00;;
51122;SDS011;37162;41.724;13.346;2023-12-04T02:55:30;3.45;;;2.20;;
51122;SDS011;37162;41.724;13.346;2023-12-04T02:57:55;4.53;;;2.28;;
51122;SDS011;37162;41.724;13.346;2023-12-04T03:00:21;3.83;;;1.80;;
51122;SDS011;37162;41.724;13.346;2023-12-04T03:02:46;4.57;;;2.30;;
51122;SDS011;37162;41.724;13.346;2023-12-04T03:05:12;4.47;;;2.45;;
51122;SDS011;37162;41.724;13.346;2023-12-04T03:07:37;3.35;;;1.98;;
51122;SDS011;37162;41.724;13.346;2023-12-04T03:10:03;5.03;;;2.17;;
51122;SDS011;37162;41.724;13.346;2023-12-04T03:12:28;3.40;;;1.95;;
51122;SDS011;37162;41.724;13.346;2023-12-04T03:14:54;3.67;;;2.50;;
51122;SDS011;37162;41.724;13.346;2023-12-04T03:17:19;3.80;;;2.20;;
51122;SDS011;37162;41.724;13.346;2023-12-04T03:19:45;5.32;;;3.13;;
51122;SDS011;37162;41.724;13.346;2023-12-04T03:22:11;3.13;;;2.30;;
51122;SDS011;37162;41.724;13.346;2023-12-04T03:24:37;4.05;;;2.25;;
51122;SDS011;37162;41.724;13.346;2023-12-04T03:27:03;4.75;;;2.20;;
51122;SDS011;37162;41.724;13.346;2023-12-04T03:29:28;3.45;;;2.05;;
51122;SDS011;37162;41.724;13.346;2023-12-04T03:31:54;4.18;;;1.98;;
51122;SDS011;37162;41.724;13.346;2023-12-04T03:36:54;5.90;;;2.60;;
51122;SDS011;37162;41.724;13.346;2023-12-04T03:39:20;3.22;;;2.20;;
51122;SDS011;37162;41.724;13.346;2023-12-04T03:41:46;5.38;;;2.42;;
51122;SDS011;37162;41.724;13.346;2023-12-04T03:44:12;5.07;;;2.30;;
51122;SDS011;37162;41.724;13.346;2023-12-04T03:46:37;4.43;;;2.25;;
51122;SDS011;37162;41.724;13.346;2023-12-04T03:49:03;3.70;;;2.30;;
51122;SDS011;37162;41.724;13.346;2023-12-04T03:51:30;2.92;;;1.88;;
51122;SDS011;37162;41.724;13.346;2023-12-04T03:53:55;4.65;;;2.17;;
51122;SDS011;37162;41.724;13.346;2023-12-04T03:56:21;4.90;;;2.30;;
51122;SDS011;37162;41.724;13.346;2023-12-04T03:58:46;3.63;;;2.00;;
51122;SDS011;37162;41.724;13.346;2023-12-04T04:01:12;4.70;;;2.15;;
51122;SDS011;37162;41.724;13.346;2023-12-04T04:03:37;4.70;;;2.22;;
51122;SDS011;37162;41.724;13.346;2023-12-04T04:06:03;4.03;;;2.22;;
51122;SDS011;37162;41.724;13.346;2023-12-04T04:08:29;4.03;;;1.92;;
51122;SDS011;37162;41.724;13.346;2023-12-04T04:10:54;3.40;;;2.15;;
51122;SDS011;37162;41.724;13.346;2023-12-04T04:13:20;3.20;;;2.00;;
51122;SDS011;37162;41.724;13.346;2023-12-04T04:15:45;4.00;;;2.15;;
51122;SDS011;37162;41.724;13.346;2023-12-04T04:18:11;3.08;;;2.05;;
51122;SDS011;37162;41.724;13.346;2023-12-04T04:20:36;4.40;;;2.55;;
51122;SDS011;37162;41.724;13.346;2023-12-04T04:23:02;6.63;;;2.30;;
51122;SDS011;37162;41.724;13.346;2023-12-04T04:25:27;3.28;;;2.17;;
51122;SDS011;37162;41.724;13.346;2023-12-04T04:27:53;3.17;;;1.88;;
51122;SDS011;37162;41.724;13.346;2023-12-04T04:30:18;4.40;;;2.22;;
51122;SDS011;37162;41.724;13.346;2023-12-04T04:32:44;5.57;;;2.10;;
51122;SDS011;37162;41.724;13.346;2023-12-04T04:35:09;3.33;;;2.17;;
51122;SDS011;37162;41.724;13.346;2023-12-04T04:37:35;3.22;;;2.00;;
51122;SDS011;37162;41.724;13.346;2023-12-04T04:40:00;5.30;;;2.35;;
51122;SDS011;37162;41.724;13.346;2023-12-04T04:42:26;3.85;;;2.00;;
51122;SDS011;37162;41.724;13.346;2023-12-04T04:44:51;2.38;;;1.77;;
51122;SDS011;37162;41.724;13.346;2023-12-04T04:47:17;3.40;;;1.77;;
51122;SDS011;37162;41.724;13.346;2023-12-04T04:49:42;3.70;;;2.15;;
51122;SDS011;37162;41.724;13.346;2023-12-04T04:52:08;4.07;;;2.10;;
51122;SDS011;37162;41.724;13.346;2023-12-04T04:54:33;3.00;;;1.88;;
51122;SDS011;37162;41.724;13.346;2023-12-04T04:56:59;3.47;;;1.92;;
51122;SDS011;37162;41.724;13.346;2023-12-04T04:59:24;3.20;;;1.55;;
51122;SDS011;37162;41.724;13.346;2023-12-04T05:01:50;2.55;;;1.70;;
51122;SDS011;37162;41.724;13.346;2023-12-04T05:04:15;4.35;;;2.13;;
51122;SDS011;37162;41.724;13.346;2023-12-04T05:06:41;4.57;;;1.92;;
51122;SDS011;37162;41.724;13.346;2023-12-04T05:09:06;5.43;;;1.95;;
51122;SDS011;37162;41.724;13.346;2023-12-04T05:11:32;3.25;;;2.17;;
51122;SDS011;37162;41.724;13.346;2023-12-04T05:13:57;3.78;;;2.03;;
51122;SDS011;37162;41.724;13.346;2023-12-04T05:16:23;4.00;;;2.13;;
51122;SDS011;37162;41.724;13.346;2023-12-04T05:18:48;4.47;;;2.05;;
51122;SDS011;37162;41.724;13.346;2023-12-04T05:21:14;2.75;;;1.85;;
51122;SDS011;37162;41.724;13.346;2023-12-04T05:23:39;5.20;;;1.70;;
51122;SDS011;37162;41.724;13.346;2023-12-04T05:26:05;4.40;;;1.92;;
51122;SDS011;37162;41.724;13.346;2023-12-04T05:28:31;4.13;;;1.90;;
51122;SDS011;37162;41.724;13.346;2023-12-04T05:30:57;3.05;;;1.58;;
51122;SDS011;37162;41.724;13.346;2023-12-04T05:33:23;4.50;;;2.00;;
51122;SDS011;37162;41.724;13.346;2023-12-04T05:35:48;4.10;;;2.17;;
51122;SDS011;37162;41.724;13.346;2023-12-04T05:38:16;2.88;;;1.70;;
51122;SDS011;37162;41.724;13.346;2023-12-04T05:40:41;5.57;;;2.45;;
51122;SDS011;37162;41.724;13.346;2023-12-04T05:43:07;2.97;;;1.70;;
51122;SDS011;37162;41.724;13.346;2023-12-04T05:45:32;3.28;;;1.92;;
51122;SDS011;37162;41.724;13.346;2023-12-04T05:47:58;4.80;;;1.90;;
51122;SDS011;37162;41.724;13.346;2023-12-04T05:50:23;3.70;;;1.95;;
51122;SDS011;37162;41.724;13.346;2023-12-04T05:52:49;3.88;;;2.33;;
51122;SDS011;37162;41.724;13.346;2023-12-04T05:55:15;4.57;;;2.35;;
51122;SDS011;37162;41.724;13.346;2023-12-04T05:57:41;3.40;;;1.80;;
51122;SDS011;37162;41.724;13.346;2023-12-04T06:00:06;3.25;;;1.73;;
51122;SDS011;37162;41.724;13.346;2023-12-04T06:02:39;3.00;;;1.83;;
51122;SDS011;37162;41.724;13.346;2023-12-04T06:05:05;4.68;;;2.15;;
51122;SDS011;37162;41.724;13.346;2023-12-04T06:07:31;5.43;;;2.13;;
51122;SDS011;37162;41.724;13.346;2023-12-04T06:09:57;6.35;;;2.00;;
51122;SDS011;37162;41.724;13.346;2023-12-04T06:12:22;4.47;;;1.98;;
51122;SDS011;37162;41.724;13.346;2023-12-04T06:14:47;5.95;;;2.00;;
51122;SDS011;37162;41.724;13.346;2023-12-04T06:17:13;5.45;;;2.08;;
51122;SDS011;37162;41.724;13.346;2023-12-04T06:19:39;3.25;;;1.90;;
51122;SDS011;37162;41.724;13.346;2023-12-04T06:22:04;6.20;;;2.55;;
51122;SDS011;37162;41.724;13.346;2023-12-04T06:24:30;5.63;;;2.17;;
51122;SDS011;37162;41.724;13.346;2023-12-04T06:26:56;3.83;;;2.42;;
51122;SDS011;37162;41.724;13.346;2023-12-04T06:29:22;3.53;;;1.92;;
51122;SDS011;37162;41.724;13.346;2023-12-04T06:31:48;3.35;;;1.92;;
51122;SDS011;37162;41.724;13.346;2023-12-04T06:34:14;3.03;;;1.55;;
51122;SDS011;37162;41.724;13.346;2023-12-04T06:36:39;3.72;;;2.10;;
51122;SDS011;37162;41.724;13.346;2023-12-04T06:39:08;4.43;;;1.60;;
51122;SDS011;37162;41.724;13.346;2023-12-04T06:41:35;4.38;;;2.00;;
51122;SDS011;37162;41.724;13.346;2023-12-04T06:44:01;3.47;;;1.85;;
51122;SDS011;37162;41.724;13.346;2023-12-04T06:46:27;4.22;;;1.80;;
51122;SDS011;37162;41.724;13.346;2023-12-04T06:48:56;2.75;;;1.80;;
51122;SDS011;37162;41.724;13.346;2023-12-04T06:51:24;5.05;;;1.75;;
51122;SDS011;37162;41.724;13.346;2023-12-04T06:53:50;7.40;;;2.38;;
51122;SDS011;37162;41.724;13.346;2023-12-04T06:56:15;5.57;;;2.28;;
51122;SDS011;37162;41.724;13.346;2023-12-04T06:58:41;8.30;;;2.58;;
51122;SDS011;37162;41.724;13.346;2023-12-04T07:01:06;2.85;;;1.67;;
51122;SDS011;37162;41.724;13.346;2023-12-04T07:03:32;3.50;;;2.08;;
51122;SDS011;37162;41.724;13.346;2023-12-04T07:05:57;3.67;;;1.98;;
51122;SDS011;37162;41.724;13.346;2023-12-04T07:08:23;3.65;;;1.85;;
51122;SDS011;37162;41.724;13.346;2023-12-04T07:10:49;3.83;;;1.98;;
51122;SDS011;37162;41.724;13.346;2023-12-04T07:13:15;4.50;;;1.92;;
51122;SDS011;37162;41.724;13.346;2023-12-04T07:15:41;5.05;;;2.47;;
51122;SDS011;37162;41.724;13.346;2023-12-04T07:18:06;5.88;;;2.00;;
51122;SDS011;37162;41.724;13.346;2023-12-04T07:20:32;3.97;;;2.20;;
51122;SDS011;37162;41.724;13.346;2023-12-04T07:22:57;3.70;;;1.70;;
51122;SDS011;37162;41.724;13.346;2023-12-04T07:25:23;3.08;;;1.80;;
51122;SDS011;37162;41.724;13.346;2023-12-04T07:27:49;3.97;;;1.98;;
51122;SDS011;37162;41.724;13.346;2023-12-04T07:30:15;3.42;;;1.95;;
51122;SDS011;37162;41.724;13.346;2023-12-04T07:32:40;3.55;;;1.90;;
51122;SDS011;37162;41.724;13.346;2023-12-04T07:35:06;4.38;;;2.00;;
51122;SDS011;37162;41.724;13.346;2023-12-04T07:37:32;3.55;;;1.92;;
51122;SDS011;37162;41.724;13.346;2023-12-04T07:40:05;3.88;;;2.22;;
51122;SDS011;37162;41.724;13.346;2023-12-04T07:42:35;3.55;;;2.38;;
51122;SDS011;37162;41.724;13.346;2023-12-04T07:45:01;3.70;;;1.83;;
51122;SDS011;37162;41.724;13.346;2023-12-04T07:47:27;6.32;;;2.10;;
51122;SDS011;37162;41.724;13.346;2023-12-04T07:49:52;4.15;;;2.30;;
51122;SDS011;37162;41.724;13.346;2023-12-04T07:52:17;6.43;;;1.95;;
51122;SDS011;37162;41.724;13.346;2023-12-04T07:54:43;3.50;;;2.05;;
51122;SDS011;37162;41.724;13.346;2023-12-04T07:57:09;3.50;;;1.75;;
51122;SDS011;37162;41.724;13.346;2023-12-04T07:59:34;2.85;;;1.58;;
51122;SDS011;37162;41.724;13.346;2023-12-04T08:02:00;4.40;;;1.73;;
51122;SDS011;37162;41.724;13.346;2023-12-04T08:04:25;7.43;;;2.40;;
51122;SDS011;37162;41.724;13.346;2023-12-04T08:06:51;5.30;;;2.15;;
51122;SDS011;37162;41.724;13.346;2023-12-04T08:09:16;3.67;;;1.92;;
51122;SDS011;37162;41.724;13.346;2023-12-04T08:11:42;3.95;;;1.85;;
51122;SDS011;37162;41.724;13.346;2023-12-04T08:14:07;3.88;;;1.85;;
51122;SDS011;37162;41.724;13.346;2023-12-04T08:16:33;5.57;;;2.47;;
51122;SDS011;37162;41.724;13.346;2023-12-04T08:18:58;5.90;;;3.05;;
51122;SDS011;37162;41.724;13.346;2023-12-04T08:21:24;8.40;;;2.65;;
51122;SDS011;37162;41.724;13.346;2023-12-04T08:23:49;5.93;;;2.95;;
51122;SDS011;37162;41.724;13.346;2023-12-04T08:26:20;5.80;;;2.25;;
51122;SDS011;37162;41.724;13.346;2023-12-04T08:28:49;4.32;;;2.38;;
51122;SDS011;37162;41.724;13.346;2023-12-04T08:31:15;5.25;;;2.40;;
51122;SDS011;37162;41.724;13.346;2023-12-04T08:33:41;4.22;;;2.10;;
51122;SDS011;37162;41.724;13.346;2023-12-04T08:36:07;3.63;;;2.15;;
51122;SDS011;37162;41.724;13.346;2023-12-04T08:38:33;7.22;;;2.78;;
51122;SDS011;37162;41.724;13.346;2023-12-04T08:40:58;6.80;;;2.60;;
51122;SDS011;37162;41.724;13.346;2023-12-04T08:43:24;4.60;;;2.38;;
51122;SDS011;37162;41.724;13.346;2023-12-04T08:45:49;5.65;;;2.55;;
51122;SDS011;37162;41.724;13.346;2023-12-04T08:48:14;7.97;;;2.78;;
51122;SDS011;37162;41.724;13.346;2023-12-04T08:50:40;4.80;;;2.50;;
51122;SDS011;37162;41.724;13.346;2023-12-04T08:53:05;5.25;;;2.55;;
51122;SDS011;37162;41.724;13.346;2023-12-04T08:55:31;6.10;;;3.30;;
51122;SDS011;37162;41.724;13.346;2023-12-04T08:57:56;5.88;;;1.92;;
51122;SDS011;37162;41.724;13.346;2023-12-04T09:00:22;3.60;;;2.50;;
51122;SDS011;37162;41.724;13.346;2023-12-04T09:02:48;3.85;;;2.47;;
51122;SDS011;37162;41.724;13.346;2023-12-04T09:05:13;6.70;;;3.10;;
51122;SDS011;37162;41.724;13.346;2023-12-04T09:07:39;5.88;;;2.72;;
51122;SDS011;37162;41.724;13.346;2023-12-04T09:10:05;7.10;;;2.50;;
51122;SDS011;37162;41.724;13.346;2023-12-04T09:12:31;3.38;;;2.60;;
51122;SDS011;37162;41.724;13.346;2023-12-04T09:14:56;5.80;;;2.45;;
51122;SDS011;37162;41.724;13.346;2023-12-04T09:17:22;3.90;;;2.20;;
51122;SDS011;37162;41.724;13.346;2023-12-04T09:19:48;4.20;;;2.28;;
51122;SDS011;37162;41.724;13.346;2023-12-04T09:22:13;5.28;;;2.80;;
51122;SDS011;37162;41.724;13.346;2023-12-04T09:24:39;3.80;;;2.33;;
51122;SDS011;37162;41.724;13.346;2023-12-04T09:27:04;4.18;;;2.40;;
51122;SDS011;37162;41.724;13.346;2023-12-04T09:29:32;5.95;;;2.40;;
51122;SDS011;37162;41.724;13.346;2023-12-04T09:31:59;4.20;;;2.35;;
51122;SDS011;37162;41.724;13.346;2023-12-04T09:34:24;5.22;;;2.22;;
51122;SDS011;37162;41.724;13.346;2023-12-04T09:36:50;5.13;;;2.20;;
51122;SDS011;37162;41.724;13.346;2023-12-04T09:39:16;4.63;;;2.40;;
51122;SDS011;37162;41.724;13.346;2023-12-04T09:41:42;7.88;;;2.55;;
51122;SDS011;37162;41.724;13.346;2023-12-04T09:44:09;3.47;;;2.05;;
51122;SDS011;37162;41.724;13.346;2023-12-04T09:46:35;4.00;;;2.05;;
51122;SDS011;37162;41.724;13.346;2023-12-04T09:49:01;2.65;;;1.98;;
51122;SDS011;37162;41.724;13.346;2023-12-04T09:51:32;2.80;;;2.00;;
51122;SDS011;37162;41.724;13.346;2023-12-04T09:53:59;2.67;;;1.92;;
51122;SDS011;37162;41.724;13.346;2023-12-04T09:56:29;3.80;;;2.10;;
51122;SDS011;37162;41.724;13.346;2023-12-04T09:58:57;2.65;;;1.85;;
51122;SDS011;37162;41.724;13.346;2023-12-04T10:01:29;6.10;;;2.58;;
51122;SDS011;37162;41.724;13.346;2023-12-04T10:03:58;5.68;;;2.67;;
51122;SDS011;37162;41.724;13.346;2023-12-04T10:06:28;5.78;;;2.08;;
51122;SDS011;37162;41.724;13.346;2023-12-04T10:08:54;5.07;;;2.72;;
51122;SDS011;37162;41.724;13.346;2023-12-04T10:11:23;3.47;;;2.33;;
51122;SDS011;37162;41.724;13.346;2023-12-04T10:13:50;4.10;;;2.28;;
51122;SDS011;37162;41.724;13.346;2023-12-04T10:16:35;7.00;;;2.28;;
51122;SDS011;37162;41.724;13.346;2023-12-04T10:21:51;4.65;;;2.30;;
51122;SDS011;37162;41.724;13.346;2023-12-04T10:24:36;3.83;;;1.88;;
51122;SDS011;37162;41.724;13.346;2023-12-04T10:27:04;4.28;;;2.33;;
51122;SDS011;37162;41.724;13.346;2023-12-04T10:29:40;3.45;;;1.95;;
51122;SDS011;37162;41.724;13.346;2023-12-04T10:32:13;4.38;;;2.28;;
51122;SDS011;37162;41.724;13.346;2023-12-04T10:34:42;3.75;;;2.15;;
51122;SDS011;37162;41.724;13.346;2023-12-04T10:37:08;4.43;;;2.33;;
51122;SDS011;37162;41.724;13.346;2023-12-04T10:39:48;7.97;;;2.72;;
51122;SDS011;37162;41.724;13.346;2023-12-04T10:42:25;4.38;;;2.40;;
51122;SDS011;37162;41.724;13.346;2023-12-04T10:44:51;6.75;;;2.72;;
51122;SDS011;37162;41.724;13.346;2023-12-04T10:47:19;4.25;;;2.65;;
51122;SDS011;37162;41.724;13.346;2023-12-04T10:49:50;4.95;;;2.70;;
51122;SDS011;37162;41.724;13.346;2023-12-04T10:52:17;6.53;;;3.20;;
51122;SDS011;37162;41.724;13.346;2023-12-04T10:54:46;5.35;;;3.40;;
51122;SDS011;37162;41.724;13.346;2023-12-04T10:57:12;7.03;;;4.00;;
51122;SDS011;37162;41.724;13.346;2023-12-04T10:59:45;5.72;;;3.58;;
51122;SDS011;37162;41.724;13.346;2023-12-04T11:02:13;7.60;;;3.95;;
51122;SDS011;37162;41.724;13.346;2023-12-04T11:04:47;7.47;;;3.88;;
51122;SDS011;37162;41.724;13.346;2023-12-04T11:07:15;7.60;;;3.88;;
51122;SDS011;37162;41.724;13.346;2023-12-04T11:09:43;8.02;;;4.38;;
51122;SDS011;37162;41.724;13.346;2023-12-04T11:12:11;9.18;;;4.68;;
51122;SDS011;37162;41.724;13.346;2023-12-04T11:17:12;7.30;;;3.92;;
51122;SDS011;37162;41.724;13.346;2023-12-04T11:19:43;10.13;;;4.13;;
51122;SDS011;37162;41.724;13.346;2023-12-04T11:22:17;5.75;;;3.78;;
51122;SDS011;37162;41.724;13.346;2023-12-04T11:24:46;6.95;;;3.95;;
51122;SDS011;37162;41.724;13.346;2023-12-04T11:27:14;6.28;;;4.10;;
51122;SDS011;37162;41.724;13.346;2023-12-04T11:29:41;5.95;;;3.78;;
51122;SDS011;37162;41.724;13.346;2023-12-04T11:32:12;7.80;;;4.07;;
51122;SDS011;37162;41.724;13.346;2023-12-04T11:34:47;5.80;;;4.10;;
51122;SDS011;37162;41.724;13.346;2023-12-04T11:37:17;6.55;;;4.05;;
51122;SDS011;37162;41.724;13.346;2023-12-04T11:39:46;7.18;;;4.43;;
51122;SDS011;37162;41.724;13.346;2023-12-04T11:42:13;6.65;;;3.80;;
51122;SDS011;37162;41.724;13.346;2023-12-04T11:44:40;6.43;;;3.97;;
51122;SDS011;37162;41.724;13.346;2023-12-04T11:47:06;8.48;;;4.25;;
51122;SDS011;37162;41.724;13.346;2023-12-04T11:49:32;9.65;;;4.65;;
51122;SDS011;37162;41.724;13.346;2023-12-04T11:51:58;8.40;;;4.40;;
51122;SDS011;37162;41.724;13.346;2023-12-04T11:57:36;8.80;;;4.30;;
51122;SDS011;37162;41.724;13.346;2023-12-04T12:00:09;7.78;;;4.88;;
51122;SDS011;37162;41.724;13.346;2023-12-04T12:02:38;6.88;;;4.18;;
51122;SDS011;37162;41.724;13.346;2023-12-04T12:05:04;5.72;;;4.10;;
51122;SDS011;37162;41.724;13.346;2023-12-04T12:07:30;5.55;;;3.97;;
51122;SDS011;37162;41.724;13.346;2023-12-04T12:09:56;7.20;;;4.22;;
51122;SDS011;37162;41.724;13.346;2023-12-04T12:12:22;8.75;;;4.60;;
51122;SDS011;37162;41.724;13.346;2023-12-04T12:14:48;5.38;;;3.80;;
51122;SDS011;37162;41.724;13.346;2023-12-04T12:17:13;9.88;;;4.75;;
51122;SDS011;37162;41.724;13.346;2023-12-04T12:19:39;7.28;;;4.28;;
51122;SDS011;37162;41.724;13.346;2023-12-04T12:22:04;8.00;;;4.55;;
51122;SDS011;37162;41.724;13.346;2023-12-04T12:24:30;6.35;;;4.25;;
51122;SDS011;37162;41.724;13.346;2023-12-04T12:26:55;6.80;;;4.05;;
51122;SDS011;37162;41.724;13.346;2023-12-04T12:29:21;9.23;;;4.38;;
51122;SDS011;37162;41.724;13.346;2023-12-04T12:31:47;7.55;;;5.00;;
51122;SDS011;37162;41.724;13.346;2023-12-04T12:34:12;7.60;;;4.97;;
51122;SDS011;37162;41.724;13.346;2023-12-04T12:36:37;9.95;;;4.90;;
51122;SDS011;37162;41.724;13.346;2023-12-04T12:39:03;8.80;;;5.30;;
51122;SDS011;37162;41.724;13.346;2023-12-04T12:41:30;8.80;;;4.47;;
51122;SDS011;37162;41.724;13.346;2023-12-04T12:43:56;13.40;;;5.10;;
51122;SDS011;37162;41.724;13.346;2023-12-04T12:46:21;8.15;;;5.40;;
51122;SDS011;37162;41.724;13.346;2023-12-04T12:48:47;6.05;;;3.95;;
51122;SDS011;37162;41.724;13.346;2023-12-04T12:51:13;8.27;;;4.70;;
51122;SDS011;37162;41.724;13.346;2023-12-04T12:53:39;7.63;;;4.03;;
51122;SDS011;37162;41.724;13.346;2023-12-04T12:56:05;8.48;;;4.78;;
51122;SDS011;37162;41.724;13.346;2023-12-04T12:58:31;7.75;;;4.88;;
51122;SDS011;37162;41.724;13.346;2023-12-04T13:00:59;7.07;;;4.30;;
51122;SDS011;37162;41.724;13.346;2023-12-04T13:03:25;7.35;;;4.00;;
51122;SDS011;37162;41.724;13.346;2023-12-04T13:05:50;8.23;;;4.30;;
51122;SDS011;37162;41.724;13.346;2023-12-04T13:08:16;8.02;;;4.32;;
51122;SDS011;37162;41.724;13.346;2023-12-04T13:10:41;8.32;;;4.30;;
51122;SDS011;37162;41.724;13.346;2023-12-04T13:13:10;10.10;;;4.38;;
51122;SDS011;37162;41.724;13.346;2023-12-04T13:15:36;6.85;;;4.47;;
51122;SDS011;37162;41.724;13.346;2023-12-04T13:18:02;6.63;;;4.38;;
51122;SDS011;37162;41.724;13.346;2023-12-04T13:20:27;7.90;;;5.05;;
51122;SDS011;37162;41.724;13.346;2023-12-04T13:22:53;8.30;;;4.78;;
51122;SDS011;37162;41.724;13.346;2023-12-04T13:25:18;8.95;;;4.80;;
51122;SDS011;37162;41.724;13.346;2023-12-04T13:27:44;6.80;;;4.20;;
51122;SDS011;37162;41.724;13.346;2023-12-04T13:30:09;8.15;;;4.90;;
51122;SDS011;37162;41.724;13.346;2023-12-04T13:32:38;7.80;;;4.72;;
51122;SDS011;37162;41.724;13.346;2023-12-04T13:35:04;7.13;;;4.40;;
51122;SDS011;37162;41.724;13.346;2023-12-04T13:37:31;7.82;;;4.40;;
51122;SDS011;37162;41.724;13.346;2023-12-04T13:39:57;8.25;;;4.60;;
51122;SDS011;37162;41.724;13.346;2023-12-04T13:42:26;6.75;;;4.07;;
51122;SDS011;37162;41.724;13.346;2023-12-04T13:45:11;8.10;;;4.68;;
51122;SDS011;37162;41.724;13.346;2023-12-04T13:47:37;9.98;;;4.82;;
51122;SDS011;37162;41.724;13.346;2023-12-04T13:50:05;7.75;;;4.57;;
51122;SDS011;37162;41.724;13.346;2023-12-04T13:52:34;8.40;;;4.28;;
51122;SDS011;37162;41.724;13.346;2023-12-04T13:54:59;8.55;;;4.90;;
51122;SDS011;37162;41.724;13.346;2023-12-04T13:57:25;8.25;;;4.40;;
51122;SDS011;37162;41.724;13.346;2023-12-04T13:59:58;7.85;;;4.85;;
51122;SDS011;37162;41.724;13.346;2023-12-04T14:02:24;7.90;;;4.90;;
51122;SDS011;37162;41.724;13.346;2023-12-04T14:04:50;8.52;;;6.00;;
51122;SDS011;37162;41.724;13.346;2023-12-04T14:07:15;9.60;;;5.32;;
51122;SDS011;37162;41.724;13.346;2023-12-04T14:09:42;9.90;;;5.95;;
51122;SDS011;37162;41.724;13.346;2023-12-04T14:12:09;9.57;;;5.05;;
51122;SDS011;37162;41.724;13.346;2023-12-04T14:14:35;11.38;;;5.68;;
51122;SDS011;37162;41.724;13.346;2023-12-04T14:17:02;9.13;;;5.22;;
51122;SDS011;37162;41.724;13.346;2023-12-04T14:19:29;8.32;;;5.60;;
51122;SDS011;37162;41.724;13.346;2023-12-04T14:21:55;10.30;;;5.50;;
51122;SDS011;37162;41.724;13.346;2023-12-04T14:24:21;8.57;;;5.72;;
51122;SDS011;37162;41.724;13.346;2023-12-04T14:26:47;8.90;;;5.43;;
51122;SDS011;37162;41.724;13.346;2023-12-04T14:29:13;9.27;;;5.85;;
51122;SDS011;37162;41.724;13.346;2023-12-04T14:31:41;8.95;;;5.35;;
51122;SDS011;37162;41.724;13.346;2023-12-04T14:34:10;8.80;;;5.30;;
51122;SDS011;37162;41.724;13.346;2023-12-04T14:36:35;9.77;;;5.50;;
51122;SDS011;37162;41.724;13.346;2023-12-04T14:39:02;9.20;;;5.18;;